Time;durP1;ratioP1;P1;durP2;ratioP2;P2;SDS_P1;SDS_P2;PMS_P1;PMS_P2;Temp;Humidity;BMP_temperature;BMP_pressure;BME280_temperature;BME280_humidity;BME280_pressure;Samples;Min_cycle;Max_cycle;Signal;HPM_P1;HPM_P2
2021/01/31 00:02:59;;;;;;;17.92;12.05;;;-1.30;99.90;;;;;;5072066;28;20236;-85
2021/01/31 00:05:29;;;;;;;14.95;11.25;;;-1.30;99.90;;;;;;5100121;28;20224;-85
2021/01/31 00:08:00;;;;;;;15.18;11.00;;;-1.40;99.90;;;;;;5099325;28;20251;-85
2021/01/31 00:10:28;;;;;;;15.20;12.80;;;-1.40;99.90;;;;;;5134167;22;20463;-83
2021/01/31 00:12:55;;;;;;;15.80;12.15;;;-1.40;99.90;;;;;;5123332;28;20566;-83
2021/01/31 00:15:25;;;;;;;13.30;9.75;;;-1.40;99.90;;;;;;5122910;28;20217;-84
2021/01/31 00:17:51;;;;;;;17.10;11.50;;;-1.40;99.90;;;;;;5122413;28;20303;-84
2021/01/31 00:20:23;;;;;;;14.68;10.98;;;-1.50;99.90;;;;;;5112418;28;20226;-83
2021/01/31 00:22:49;;;;;;;13.60;10.82;;;-1.40;99.90;;;;;;5102264;28;20523;-84
2021/01/31 00:25:17;;;;;;;13.70;9.38;;;-1.50;99.90;;;;;;5102196;28;20206;-85
2021/01/31 00:27:43;;;;;;;14.43;10.27;;;-1.50;99.90;;;;;;5101605;28;20225;-85
2021/01/31 00:30:18;;;;;;;14.52;10.07;;;-1.60;99.90;;;;;;5101583;28;20598;-84
2021/01/31 00:32:44;;;;;;;14.27;10.55;;;-1.80;99.90;;;;;;5102249;28;20558;-83
2021/01/31 00:35:12;;;;;;;13.80;10.98;;;-1.70;99.90;;;;;;5102380;28;20282;-83
2021/01/31 00:37:39;;;;;;;17.13;11.82;;;-1.80;99.90;;;;;;5102359;28;20330;-83
2021/01/31 00:40:06;;;;;;;16.10;12.13;;;-1.90;99.90;;;;;;5105649;28;20221;-83
2021/01/31 00:42:33;;;;;;;17.40;12.45;;;-2.00;99.90;;;;;;5105002;28;20222;-84
2021/01/31 00:44:59;;;;;;;18.52;12.88;;;-2.00;99.90;;;;;;5103072;28;20214;-84
2021/01/31 00:47:25;;;;;;;14.82;12.65;;;-2.00;99.90;;;;;;5103788;28;20254;-84
2021/01/31 00:49:51;;;;;;;19.05;13.40;;;-2.10;99.90;;;;;;5106627;28;20222;-83
2021/01/31 00:52:21;;;;;;;23.50;14.20;;;-2.20;99.90;;;;;;5106786;28;20217;-83
2021/01/31 00:54:48;;;;;;;20.33;12.65;;;-2.30;99.90;;;;;;5101263;28;20201;-84
2021/01/31 00:57:15;;;;;;;20.80;15.20;;;-2.20;99.90;;;;;;5102101;28;20213;-84
2021/01/31 00:59:41;;;;;;;18.80;14.15;;;-2.20;99.90;;;;;;5101756;28;20248;-83
2021/01/31 01:02:09;;;;;;;21.58;15.27;;;-2.20;99.90;;;;;;5098963;28;20213;-83
2021/01/31 01:04:35;;;;;;;24.10;15.32;;;-2.10;99.90;;;;;;5101013;28;20201;-84
2021/01/31 01:07:01;;;;;;;20.38;15.15;;;-2.10;99.90;;;;;;5101392;28;20666;-83
2021/01/31 01:09:28;;;;;;;17.95;13.80;;;-2.10;99.90;;;;;;5102368;28;20247;-84
2021/01/31 01:11:55;;;;;;;19.95;15.55;;;-2.20;99.90;;;;;;5102124;28;20181;-84
2021/01/31 01:14:21;;;;;;;27.85;15.70;;;-2.30;99.90;;;;;;5110481;28;20198;-84
2021/01/31 01:16:47;;;;;;;27.50;15.68;;;-2.30;99.90;;;;;;5104843;28;20209;-84
2021/01/31 01:19:13;;;;;;;18.50;15.10;;;-2.20;99.90;;;;;;5103366;28;20206;-83
2021/01/31 01:21:41;;;;;;;22.45;14.50;;;-2.10;99.90;;;;;;5114718;28;20209;-83
2021/01/31 01:24:07;;;;;;;28.30;16.40;;;-2.30;99.90;;;;;;5120176;28;20193;-82
2021/01/31 01:26:33;;;;;;;21.00;16.17;;;-2.40;99.90;;;;;;5120332;28;20186;-83
2021/01/31 01:29:00;;;;;;;23.15;16.10;;;-2.40;99.90;;;;;;5119876;28;20208;-83
2021/01/31 01:31:26;;;;;;;19.65;14.82;;;-2.50;99.90;;;;;;5120017;28;20218;-82
2021/01/31 01:33:53;;;;;;;28.00;17.33;;;-2.60;99.90;;;;;;5120336;28;20215;-79
2021/01/31 01:36:19;;;;;;;23.40;15.77;;;-2.50;99.90;;;;;;5119260;28;20182;-82
2021/01/31 01:38:46;;;;;;;27.08;18.83;;;-2.60;99.90;;;;;;5118978;28;20186;-83
2021/01/31 01:41:12;;;;;;;30.52;17.75;;;-2.70;99.90;;;;;;5107007;28;20236;-85
2021/01/31 01:43:38;;;;;;;27.23;17.40;;;-2.70;99.90;;;;;;5102803;28;20202;-84
2021/01/31 01:46:27;;;;;;;29.13;19.17;;;-2.80;99.90;;;;;;5099473;28;20208;-83
2021/01/31 01:48:59;;;;;;;25.63;17.50;;;-2.70;99.90;;;;;;5098262;28;20210;-83
2021/01/31 01:51:31;;;;;;;30.67;18.50;;;-2.80;99.90;;;;;;5098446;28;20241;-84
2021/01/31 01:53:59;;;;;;;27.65;19.65;;;-2.90;99.90;;;;;;5100429;28;20193;-83
2021/01/31 01:56:32;;;;;;;25.08;18.80;;;-2.90;99.90;;;;;;5100480;28;20201;-84
2021/01/31 01:59:00;;;;;;;33.97;20.30;;;-3.00;99.90;;;;;;5099823;28;20193;-84
2021/01/31 02:01:27;;;;;;;30.58;19.88;;;-2.90;99.90;;;;;;5099918;28;20237;-84
2021/01/31 02:03:56;;;;;;;29.85;19.73;;;-3.00;99.90;;;;;;5103338;28;20197;-84
2021/01/31 02:06:25;;;;;;;24.90;19.10;;;-3.20;99.90;;;;;;5101515;28;20209;-83
2021/01/31 02:08:54;;;;;;;33.70;19.13;;;-3.20;99.90;;;;;;5099362;28;20209;-84
2021/01/31 02:11:21;;;;;;;33.75;20.67;;;-3.20;99.90;;;;;;5099073;28;20248;-84
2021/01/31 02:13:51;;;;;;;32.15;18.75;;;-3.40;99.90;;;;;;5100056;28;20205;-84
2021/01/31 02:16:24;;;;;;;32.10;20.67;;;-3.40;99.90;;;;;;5099809;28;20243;-84
2021/01/31 02:18:59;;;;;;;31.15;20.52;;;-3.40;99.90;;;;;;5101295;28;20561;-84
2021/01/31 02:21:47;;;;;;;37.30;22.17;;;-3.60;99.90;;;;;;5098619;28;20229;-84
2021/01/31 02:24:54;;;;;;;40.85;22.48;;;-3.50;99.90;;;;;;5098869;28;20197;-84
2021/01/31 02:27:44;;;;;;;51.70;24.08;;;-3.60;99.90;;;;;;5098500;28;20185;-84
2021/01/31 02:30:28;;;;;;;36.75;24.50;;;-3.50;99.90;;;;;;5098535;28;20221;-84
2021/01/31 02:33:24;;;;;;;50.92;24.83;;;-3.40;99.90;;;;;;5097288;28;20186;-84
2021/01/31 02:35:58;;;;;;;42.88;24.55;;;-3.40;99.90;;;;;;5097251;28;20190;-84
2021/01/31 02:38:29;;;;;;;43.15;26.35;;;-3.40;99.90;;;;;;5096932;28;20181;-83
2021/01/31 02:41:00;;;;;;;38.30;22.70;;;-3.40;99.90;;;;;;5096494;28;20592;-84
2021/01/31 02:43:35;;;;;;;45.53;21.95;;;-3.40;99.90;;;;;;5097178;28;20331;-83
2021/01/31 02:46:08;;;;;;;35.38;20.33;;;-3.60;99.90;;;;;;5098348;28;20211;-84
2021/01/31 02:48:39;;;;;;;38.08;21.17;;;-3.50;99.90;;;;;;5097917;28;20190;-84
2021/01/31 02:51:10;;;;;;;34.50;20.95;;;-3.50;99.90;;;;;;5096929;28;20245;-84
2021/01/31 02:53:41;;;;;;;31.42;18.65;;;-3.50;99.90;;;;;;5097105;28;20212;-84
2021/01/31 02:56:11;;;;;;;28.60;19.73;;;-3.60;99.90;;;;;;5097173;28;20197;-83
2021/01/31 02:58:41;;;;;;;32.90;20.40;;;-3.70;99.90;;;;;;5099518;28;20269;-84
2021/01/31 03:01:11;;;;;;;29.90;18.73;;;-3.90;99.90;;;;;;5097844;28;20698;-84
2021/01/31 03:03:42;;;;;;;29.95;18.33;;;-3.90;99.90;;;;;;5097523;28;20259;-84
2021/01/31 03:06:14;;;;;;;29.13;18.55;;;-4.10;99.90;;;;;;5098444;28;20193;-84
2021/01/31 03:08:46;;;;;;;33.25;18.40;;;-4.00;99.90;;;;;;5115080;28;20189;-83
2021/01/31 03:11:17;;;;;;;24.77;16.33;;;-4.20;99.90;;;;;;5108467;28;20255;-84
2021/01/31 03:13:53;;;;;;;25.67;16.52;;;-4.20;99.90;;;;;;5098553;28;20190;-84
2021/01/31 03:16:28;;;;;;;20.50;15.65;;;-4.20;99.90;;;;;;5096926;28;20717;-82
2021/01/31 03:19:00;;;;;;;21.63;14.52;;;-4.40;99.90;;;;;;5097432;28;20189;-85
2021/01/31 03:21:30;;;;;;;33.33;17.30;;;-4.40;99.90;;;;;;5100554;28;20709;-83
2021/01/31 03:24:01;;;;;;;25.40;16.85;;;-4.60;99.90;;;;;;5101008;28;20436;-84
2021/01/31 03:26:32;;;;;;;24.48;15.25;;;-4.70;99.90;;;;;;5102288;28;20189;-83
2021/01/31 03:28:59;;;;;;;27.38;17.25;;;-4.60;99.90;;;;;;5102717;28;20260;-85
2021/01/31 03:31:29;;;;;;;29.80;16.08;;;-4.60;99.90;;;;;;5101723;28;20222;-83
2021/01/31 03:34:02;;;;;;;31.92;17.52;;;-4.60;99.90;;;;;;5102569;28;20193;-83
2021/01/31 03:36:29;;;;;;;34.92;17.25;;;-4.70;99.90;;;;;;5102118;28;20186;-82
2021/01/31 03:38:56;;;;;;;36.58;18.67;;;-4.80;99.90;;;;;;5102838;28;20202;-83
2021/01/31 03:41:27;;;;;;;34.60;18.83;;;-4.90;99.90;;;;;;5102060;28;20221;-82
2021/01/31 03:43:54;;;;;;;30.40;17.75;;;-4.90;99.90;;;;;;5101836;28;20200;-82
2021/01/31 03:46:26;;;;;;;27.15;16.20;;;-4.90;99.90;;;;;;5102405;28;20209;-83
2021/01/31 03:48:59;;;;;;;35.83;18.33;;;-4.80;99.90;;;;;;5102145;28;20190;-83
2021/01/31 03:51:26;;;;;;;26.65;16.77;;;-4.70;99.90;;;;;;5102618;28;20221;-82
2021/01/31 03:53:53;;;;;;;29.50;17.38;;;-4.70;99.90;;;;;;5119499;28;20209;-83
2021/01/31 03:56:23;;;;;;;22.73;13.27;;;-4.50;99.90;;;;;;5105511;28;20216;-85
2021/01/31 03:58:53;;;;;;;25.05;15.35;;;-4.70;99.90;;;;;;5108488;28;20193;-84
2021/01/31 04:01:21;;;;;;;19.48;12.65;;;-4.70;99.90;;;;;;5112022;28;20248;-83
2021/01/31 04:03:54;;;;;;;23.10;13.57;;;-4.70;99.90;;;;;;5120730;28;20186;-84
2021/01/31 04:06:25;;;;;;;23.55;14.02;;;-4.70;99.90;;;;;;5120700;28;20181;-82
2021/01/31 04:08:55;;;;;;;19.70;11.65;;;-4.70;99.90;;;;;;5121122;28;20170;-83
2021/01/31 04:11:33;;;;;;;20.02;12.73;;;-4.70;99.90;;;;;;5116120;28;20247;-82
2021/01/31 04:14:04;;;;;;;18.80;13.15;;;-4.70;99.90;;;;;;5104247;28;20201;-83
2021/01/31 04:16:37;;;;;;;23.67;13.48;;;-4.90;99.90;;;;;;5102325;28;20186;-83
2021/01/31 04:19:03;;;;;;;18.05;12.27;;;-4.70;99.90;;;;;;5101708;28;20196;-83
2021/01/31 04:21:30;;;;;;;21.73;13.10;;;-4.60;99.90;;;;;;5101619;28;20221;-83
2021/01/31 04:23:56;;;;;;;21.48;12.60;;;-4.60;99.90;;;;;;5100609;28;20213;-83
2021/01/31 04:26:22;;;;;;;22.23;14.32;;;-4.50;99.90;;;;;;5111230;28;20189;-83
2021/01/31 04:28:49;;;;;;;19.48;12.10;;;-4.50;99.90;;;;;;5116273;28;20202;-82
2021/01/31 04:31:15;;;;;;;20.83;12.57;;;-4.60;99.90;;;;;;5115583;28;20197;-82
2021/01/31 04:33:41;;;;;;;20.08;12.20;;;-4.40;99.90;;;;;;5115460;28;20210;-82
2021/01/31 04:36:07;;;;;;;19.48;14.38;;;-4.40;99.90;;;;;;5104291;28;20305;-82
2021/01/31 04:38:34;;;;;;;18.73;11.57;;;-4.50;99.90;;;;;;5102695;28;20201;-82
2021/01/31 04:41:01;;;;;;;16.02;11.20;;;-4.50;99.90;;;;;;5106157;28;20217;-82
2021/01/31 04:43:27;;;;;;;16.85;11.70;;;-4.60;99.90;;;;;;5119244;28;20223;-82
2021/01/31 04:45:55;;;;;;;19.35;11.57;;;-4.70;99.90;;;;;;5118826;28;20232;-82
2021/01/31 04:48:31;;;;;;;19.52;11.80;;;-4.80;99.90;;;;;;5114476;28;20224;-83
2021/01/31 04:51:08;;;;;;;19.42;12.57;;;-4.80;99.90;;;;;;5113041;28;20228;-83
2021/01/31 04:53:58;;;;;;;25.48;11.27;;;-4.80;99.90;;;;;;5111583;28;20197;-83
2021/01/31 04:56:47;;;;;;;17.65;11.52;;;-4.90;99.90;;;;;;5103454;28;20189;-83
2021/01/31 04:59:25;;;;;;;21.38;12.45;;;-5.00;99.90;;;;;;5100174;28;20182;-85
2021/01/31 05:01:57;;;;;;;18.52;12.25;;;-5.10;99.90;;;;;;5101105;28;20214;-83
2021/01/31 05:04:25;;;;;;;21.80;11.88;;;-5.20;99.90;;;;;;5100290;28;20194;-82
2021/01/31 05:06:53;;;;;;;18.75;12.55;;;-5.10;99.90;;;;;;5100109;28;20206;-83
2021/01/31 05:09:22;;;;;;;19.23;12.68;;;-5.00;99.90;;;;;;5099659;28;20212;-83
2021/01/31 05:11:56;;;;;;;20.67;12.68;;;-5.20;99.90;;;;;;5099721;28;20186;-82
2021/01/31 05:14:41;;;;;;;27.83;14.68;;;-5.10;99.90;;;;;;5099885;28;20194;-82
2021/01/31 05:17:08;;;;;;;23.13;13.10;;;-5.10;99.90;;;;;;5105869;28;20260;-82
2021/01/31 05:19:36;;;;;;;22.30;12.63;;;-5.30;99.90;;;;;;5103664;28;20225;-83
2021/01/31 05:22:02;;;;;;;21.73;12.82;;;-5.20;99.90;;;;;;5101580;28;20579;-83
2021/01/31 05:24:33;;;;;;;24.27;13.80;;;-5.20;99.90;;;;;;5100882;28;20197;-83
2021/01/31 05:27:01;;;;;;;27.67;15.38;;;-5.20;99.90;;;;;;5102984;28;20209;-83
2021/01/31 05:29:31;;;;;;;27.98;14.40;;;-5.20;99.90;;;;;;5100401;28;20222;-83
2021/01/31 05:32:03;;;;;;;23.80;13.93;;;-5.20;99.90;;;;;;5100908;28;20255;-83
2021/01/31 05:34:34;;;;;;;26.80;14.18;;;-5.40;99.90;;;;;;5100799;28;20212;-83
2021/01/31 05:37:02;;;;;;;22.27;14.27;;;-5.40;99.90;;;;;;5100889;28;20206;-83
2021/01/31 05:39:44;;;;;;;25.58;16.77;;;-5.30;99.90;;;;;;5099682;28;20443;-83
2021/01/31 05:42:14;;;;;;;20.88;13.52;;;-5.30;99.90;;;;;;5100275;28;20232;-83
2021/01/31 05:44:42;;;;;;;23.70;14.38;;;-5.40;99.90;;;;;;5102997;28;20202;-83
2021/01/31 05:47:24;;;;;;;20.15;13.65;;;-5.30;99.90;;;;;;5115003;28;20190;-84
2021/01/31 05:49:53;;;;;;;26.63;14.15;;;-5.30;99.90;;;;;;5108176;28;20271;-85
2021/01/31 05:52:32;;;;;;;26.65;12.93;;;-5.50;99.90;;;;;;5100704;28;20206;-84
2021/01/31 05:55:00;;;;;;;24.17;11.88;;;-5.20;99.90;;;;;;5100250;28;20257;-84
2021/01/31 05:57:29;;;;;;;25.45;14.32;;;-5.10;99.90;;;;;;5099158;28;20209;-83
2021/01/31 05:59:56;;;;;;;23.27;13.50;;;-5.10;99.90;;;;;;5099015;28;20268;-82
2021/01/31 06:02:25;;;;;;;21.42;13.52;;;-5.10;99.90;;;;;;5105984;28;20224;-82
2021/01/31 06:05:12;;;;;;;20.35;12.55;;;-5.10;99.90;;;;;;5118300;28;20205;-82
2021/01/31 06:07:40;;;;;;;23.33;11.70;;;-5.00;99.90;;;;;;5116583;28;20234;-82
2021/01/31 06:10:27;;;;;;;24.95;13.60;;;-5.00;99.90;;;;;;5156318;22;20232;-86
2021/01/31 06:13:10;;;;;;;21.48;13.25;;;-5.10;99.90;;;;;;5159497;27;20414;-87
2021/01/31 06:15:53;;;;;;;17.30;11.05;;;-5.00;99.90;;;;;;5160024;27;20208;-87
2021/01/31 06:18:24;;;;;;;20.60;10.65;;;-5.20;99.90;;;;;;5160020;27;20260;-87
2021/01/31 06:20:57;;;;;;;17.55;10.82;;;-5.30;99.90;;;;;;5148112;27;20244;-88
2021/01/31 06:24:02;;;;;;;21.02;12.63;;;-5.50;99.90;;;;;;5130230;28;20221;-87
2021/01/31 06:26:31;;;;;;;19.33;11.20;;;-5.60;99.90;;;;;;5124836;28;20260;-88
2021/01/31 06:33:55;;;;;;;22.45;11.90;;;-5.60;99.90;;;;;;5123169;28;20224;-88
2021/01/31 06:36:55;;;;;;;20.90;11.80;;;-5.50;99.90;;;;;;5041923;28;20441;-88
2021/01/31 06:40:09;;;;;;;18.25;10.15;;;-5.40;99.90;;;;;;5090758;28;20196;-88
2021/01/31 06:46:16;;;;;;;16.77;11.82;;;-5.20;99.90;;;;;;5112546;28;20205;-87
2021/01/31 06:49:03;;;;;;;18.05;11.10;;;-5.30;99.90;;;;;;5126531;28;20687;-89
2021/01/31 06:52:06;;;;;;;18.17;11.77;;;-5.50;99.90;;;;;;5122851;28;20216;-87
2021/01/31 06:54:51;;;;;;;20.70;12.40;;;-5.70;99.90;;;;;;5121850;28;20441;-87
2021/01/31 06:57:57;;;;;;;18.30;11.85;;;-5.80;99.90;;;;;;5120858;28;20371;-87
2021/01/31 07:01:01;;;;;;;21.27;11.38;;;-5.90;99.90;;;;;;5120174;28;20217;-88
2021/01/31 07:03:57;;;;;;;17.13;10.73;;;-5.80;99.90;;;;;;5122235;28;20314;-88
2021/01/31 07:06:49;;;;;;;19.77;11.23;;;-5.90;99.90;;;;;;5125192;28;20203;-87
2021/01/31 07:09:35;;;;;;;17.20;10.90;;;-5.90;99.90;;;;;;5105279;28;20201;-87
2021/01/31 07:12:16;;;;;;;15.60;9.75;;;-5.70;99.90;;;;;;5133071;28;20216;-87
2021/01/31 07:14:57;;;;;;;14.10;9.15;;;-5.80;99.90;;;;;;5127025;28;20254;-88
2021/01/31 07:17:34;;;;;;;16.88;10.63;;;-6.00;99.90;;;;;;5123555;28;20181;-87
2021/01/31 07:20:25;;;;;;;;;;;;;;;;;;;;;
2021/01/31 07:23:05;;;;;;;18.15;10.23;;;-6.00;99.90;;;;;;5125290;28;20708;-87
2021/01/31 07:25:36;;;;;;;17.02;10.20;;;-6.00;99.90;;;;;;5121806;28;20193;-87
2021/01/31 07:28:28;;;;;;;20.15;11.48;;;-6.10;99.90;;;;;;5126860;28;20181;-86
2021/01/31 07:31:05;;;;;;;17.35;10.18;;;-6.00;99.90;;;;;;5126602;28;20225;-88
2021/01/31 07:33:43;;;;;;;20.38;11.27;;;-5.90;99.90;;;;;;5129796;28;20228;-89
2021/01/31 07:36:18;;;;;;;16.52;11.85;;;-5.90;99.90;;;;;;5126722;28;20209;-87
2021/01/31 07:38:55;;;;;;;21.55;11.57;;;-6.00;99.90;;;;;;5122831;28;20173;-88
2021/01/31 07:41:23;;;;;;;16.80;10.75;;;-5.80;99.90;;;;;;5121917;28;20213;-87
2021/01/31 07:43:58;;;;;;;17.00;10.73;;;-5.60;99.90;;;;;;5125389;28;20201;-87
2021/01/31 07:46:29;;;;;;;21.00;11.00;;;-5.50;99.90;;;;;;5127146;28;20560;-88
2021/01/31 07:48:58;;;;;;;18.77;12.25;;;-5.50;99.90;;;;;;5128467;28;20181;-87
2021/01/31 07:52:07;;;;;;;18.95;11.10;;;-5.40;99.90;;;;;;5122992;28;20209;-88
2021/01/31 07:54:39;;;;;;;24.45;12.10;;;-5.30;99.90;;;;;;5121750;28;20178;-87
2021/01/31 07:57:32;;;;;;;16.40;10.48;;;-5.30;99.90;;;;;;5124439;28;20189;-88
2021/01/31 07:59:59;;;;;;;18.27;9.88;;;-5.20;99.90;;;;;;5123269;28;20221;-88
2021/01/31 08:02:45;;;;;;;13.93;9.07;;;-5.10;99.90;;;;;;5122957;28;20266;-87
2021/01/31 08:05:53;;;;;;;16.20;9.88;;;-5.00;99.90;;;;;;5123698;28;20209;-88
2021/01/31 08:08:40;;;;;;;13.55;8.13;;;-5.00;99.90;;;;;;5126227;28;20773;-87
2021/01/31 08:11:10;;;;;;;14.65;10.02;;;-5.30;99.90;;;;;;5128827;28;20232;-87
2021/01/31 08:13:40;;;;;;;16.25;9.75;;;-5.20;99.90;;;;;;5127454;28;20193;-87
2021/01/31 08:16:43;;;;;;;15.13;10.05;;;-5.30;99.90;;;;;;5126370;28;20443;-87
2021/01/31 08:19:24;;;;;;;17.17;11.30;;;-5.20;99.90;;;;;;5124276;28;20415;-87
2021/01/31 08:21:54;;;;;;;14.18;10.38;;;-5.00;99.90;;;;;;5125412;28;20282;-87
2021/01/31 08:25:02;;;;;;;17.02;10.38;;;-5.00;99.90;;;;;;5126150;28;20208;-87
2021/01/31 08:28:03;;;;;;;16.88;11.75;;;-4.90;99.90;;;;;;5127610;28;20193;-87
2021/01/31 08:30:34;;;;;;;19.55;12.60;;;-5.00;99.90;;;;;;5126298;28;20469;-87
2021/01/31 08:33:31;;;;;;;17.05;11.65;;;-5.00;99.90;;;;;;5139805;28;20443;-86
2021/01/31 08:36:09;;;;;;;18.85;11.02;;;-5.00;99.90;;;;;;5135749;28;20201;-87
2021/01/31 08:38:42;;;;;;;17.10;11.85;;;-4.90;99.90;;;;;;5128646;28;20189;-87
2021/01/31 08:41:41;;;;;;;12.32;9.27;;;-4.60;99.90;;;;;;5126336;28;20743;-86
2021/01/31 08:45:00;;;;;;;18.23;11.17;;;-4.50;99.90;;;;;;5124254;28;20478;-86
2021/01/31 08:47:40;;;;;;;16.15;10.50;;;-4.70;99.90;;;;;;5021346;28;20447;-87
2021/01/31 08:50:08;;;;;;;14.95;10.65;;;-4.70;99.90;;;;;;5021574;28;20316;-86
2021/01/31 08:52:37;;;;;;;16.58;10.23;;;-4.60;99.90;;;;;;5078276;28;20209;-87
2021/01/31 08:55:17;;;;;;;17.70;11.45;;;-4.50;99.90;;;;;;5128571;28;20201;-87
2021/01/31 08:57:46;;;;;;;21.90;12.85;;;-4.50;99.90;;;;;;5127894;28;20201;-88
2021/01/31 09:00:28;;;;;;;14.18;8.88;;;-4.60;99.90;;;;;;5126116;28;20227;-86
2021/01/31 09:03:01;;;;;;;12.70;8.48;;;-4.60;99.90;;;;;;5126296;28;20282;-87
2021/01/31 09:08:28;;;;;;;13.23;9.45;;;-4.40;99.90;;;;;;5122038;28;20189;-87
2021/01/31 09:14:40;;;;;;;15.98;9.93;;;-4.30;99.90;;;;;;5093128;28;20189;-87
2021/01/31 09:20:18;;;;;;;12.27;8.90;;;-4.20;99.90;;;;;;5103839;28;20237;-87
2021/01/31 09:22:48;;;;;;;10.93;9.15;;;-4.00;99.90;;;;;;5131424;28;20217;-87
2021/01/31 09:29:18;;;;;;;19.15;11.85;;;-3.90;99.90;;;;;;5119017;28;20225;-88
2021/01/31 09:32:17;;;;;;;14.93;10.50;;;-3.80;99.90;;;;;;5127725;28;20284;-87
2021/01/31 09:35:16;;;;;;;14.52;9.93;;;-3.70;99.90;;;;;;5124432;28;20245;-87
2021/01/31 09:37:46;;;;;;;13.10;9.70;;;-3.50;99.90;;;;;;5124084;28;20292;-86
2021/01/31 09:40:19;;;;;;;13.75;9.60;;;-3.30;99.90;;;;;;5125733;28;20244;-87
2021/01/31 09:42:49;;;;;;;18.45;10.95;;;-3.30;99.90;;;;;;5130797;28;20212;-86
2021/01/31 09:45:37;;;;;;;16.45;11.05;;;-3.00;99.90;;;;;;5128064;28;20217;-86
2021/01/31 09:48:12;;;;;;;13.48;9.68;;;-3.10;99.90;;;;;;5127744;28;20227;-87
2021/01/31 10:01:29;;;;;;;13.40;9.32;;;-2.80;99.90;;;;;;5029128;28;20214;-85
2021/01/31 10:11:16;;;;;;;16.33;9.43;;;-2.60;99.90;;;;;;5097166;28;20268;-86
2021/01/31 10:14:06;;;;;;;15.30;9.68;;;-2.50;99.90;;;;;;5110320;28;20214;-87
2021/01/31 10:19:34;;;;;;;16.13;10.65;;;-2.30;99.90;;;;;;5069693;28;20207;-87
2021/01/31 10:25:45;;;;;;;16.33;11.05;;;-2.10;99.90;;;;;;5102663;28;20270;-86
2021/01/31 10:29:26;;;;;;;13.35;8.98;;;-2.10;99.90;;;;;;5118761;28;20310;-86
2021/01/31 10:39:31;;;;;;;17.05;10.05;;;-1.70;99.90;;;;;;4990773;28;20214;-85
2021/01/31 10:42:00;;;;;;;14.65;9.65;;;-1.60;99.90;;;;;;5028575;28;20292;-85
2021/01/31 10:44:36;;;;;;;12.10;9.13;;;-1.50;99.90;;;;;;5134959;28;20193;-87
2021/01/31 10:47:11;;;;;;;15.10;11.00;;;-1.40;99.90;;;;;;5137970;28;20211;-86
2021/01/31 10:49:47;;;;;;;12.85;9.85;;;-1.40;99.90;;;;;;5137786;28;20196;-85
2021/01/31 10:52:25;;;;;;;14.38;10.02;;;-1.30;99.90;;;;;;5138893;28;20223;-85
2021/01/31 10:59:22;;;;;;;13.63;9.60;;;-1.20;99.90;;;;;;4956639;29;20275;-85
2021/01/31 11:02:24;;;;;;;12.73;9.68;;;-1.10;99.90;;;;;;5012413;28;20264;-86
2021/01/31 11:04:54;;;;;;;14.05;8.65;;;-0.90;99.90;;;;;;5011496;28;20207;-86
2021/01/31 11:07:37;;;;;;;14.18;9.02;;;-0.90;99.90;;;;;;5063254;28;20230;-87
2021/01/31 11:13:08;;;;;;;13.40;10.13;;;-0.60;99.90;;;;;;5099545;28;20216;-86
2021/01/31 11:15:35;;;;;;;15.52;9.30;;;-0.60;99.90;;;;;;5131232;28;20181;-86
2021/01/31 11:18:10;;;;;;;14.55;8.75;;;-0.60;99.90;;;;;;5130938;28;20216;-86
2021/01/31 11:20:38;;;;;;;12.02;8.68;;;-0.50;99.90;;;;;;5133236;28;20243;-87
2021/01/31 11:23:31;;;;;;;9.55;7.75;;;-0.40;99.90;;;;;;5131606;28;20224;-86
2021/01/31 11:25:58;;;;;;;8.43;6.97;;;-0.40;99.90;;;;;;5136268;28;20216;-87
2021/01/31 11:28:29;;;;;;;11.43;8.80;;;-0.40;99.90;;;;;;5137933;28;20193;-86
2021/01/31 11:31:02;;;;;;;12.95;8.40;;;-0.40;99.90;;;;;;5135195;28;20207;-86
2021/01/31 11:40:43;;;;;;;11.80;9.43;;;-0.20;99.90;;;;;;4938432;28;20209;-87
2021/01/31 11:43:09;;;;;;;12.75;10.38;;;-0.20;99.90;;;;;;4967605;29;20277;-79
2021/01/31 11:45:36;;;;;;;10.52;6.95;;;-0.20;99.90;;;;;;5030890;28;20200;-87
2021/01/31 12:12:04;;;;;;;9.38;7.47;;;-0.20;99.90;;;;;;4663130;22;20562;-87
2021/01/31 12:18:05;;;;;;;9.48;6.95;;;-0.20;99.90;;;;;;5105608;27;20187;-87
2021/01/31 12:20:48;;;;;;;12.00;7.78;;;-0.10;99.90;;;;;;5158464;27;20234;-88
2021/01/31 12:39:55;;;;;;;9.18;7.55;;;0.00;99.90;;;;;;5180424;27;20501;-85
2021/01/31 12:42:22;;;;;;;9.90;7.00;;;-0.20;99.90;;;;;;5179572;27;20206;-83
2021/01/31 12:44:50;;;;;;;8.52;7.32;;;-0.10;99.90;;;;;;5179260;27;20246;-84
2021/01/31 12:47:26;;;;;;;10.50;6.75;;;-0.10;99.90;;;;;;5178670;27;20569;-83
2021/01/31 12:49:55;;;;;;;8.25;6.70;;;-0.10;99.90;;;;;;5179888;27;20203;-84
2021/01/31 13:38:53;;;;;;;13.82;8.35;;;-0.10;99.90;;;;;;5128061;28;20235;-87
2021/01/31 13:44:10;;;;;;;10.55;8.73;;;-0.20;99.90;;;;;;5109605;28;20201;-87
2021/01/31 13:46:38;;;;;;;13.20;8.88;;;-0.20;99.90;;;;;;5104984;28;20226;-87
2021/01/31 13:49:05;;;;;;;13.32;7.60;;;-0.20;99.90;;;;;;5086641;28;20229;-88
2021/01/31 15:40:11;;;;;;;13.93;10.23;;;-0.90;99.90;;;;;;5057691;28;20245;-84
2021/01/31 15:42:37;;;;;;;16.95;11.48;;;-0.80;99.90;;;;;;5059399;28;20211;-84
2021/01/31 15:45:06;;;;;;;15.02;10.45;;;-0.90;99.90;;;;;;5059334;28;20218;-85
2021/01/31 15:47:32;;;;;;;18.08;11.95;;;-0.90;99.90;;;;;;5060665;28;20284;-85
2021/01/31 15:49:58;;;;;;;21.92;13.70;;;-0.90;99.90;;;;;;5084144;22;20242;-85
2021/01/31 15:52:24;;;;;;;23.55;16.15;;;-0.90;99.90;;;;;;5051502;28;20219;-86
2021/01/31 15:54:57;;;;;;;19.10;13.10;;;-0.90;99.90;;;;;;5050211;28;20226;-85
2021/01/31 15:57:24;;;;;;;27.73;19.10;;;-0.90;99.90;;;;;;5051775;28;20192;-83
2021/01/31 15:59:50;;;;;;;17.55;12.80;;;-0.90;99.90;;;;;;5047564;28;20203;-86
2021/01/31 16:02:17;;;;;;;18.25;12.00;;;-1.00;99.90;;;;;;5046970;28;20269;-84
2021/01/31 16:04:43;;;;;;;16.95;12.45;;;-0.90;99.90;;;;;;5052109;28;20207;-84
2021/01/31 16:07:14;;;;;;;18.42;13.45;;;-1.00;99.90;;;;;;5055277;28;20203;-85
2021/01/31 16:09:49;;;;;;;18.75;12.02;;;-1.00;99.90;;;;;;5057296;28;20184;-86
2021/01/31 16:15:02;;;;;;;24.88;15.43;;;-1.10;99.90;;;;;;5044513;28;20263;-87
2021/01/31 16:17:48;;;;;;;21.08;14.35;;;-1.20;99.90;;;;;;5051167;28;20337;-87
2021/01/31 16:20:15;;;;;;;21.67;14.27;;;-1.20;99.90;;;;;;5044579;28;20219;-86
2021/01/31 16:22:41;;;;;;;22.55;15.40;;;-1.20;99.90;;;;;;5043546;28;20211;-88
2021/01/31 16:25:12;;;;;;;24.25;16.60;;;-1.00;99.90;;;;;;5044207;28;20247;-87
2021/01/31 16:27:42;;;;;;;25.77;15.55;;;-1.10;99.90;;;;;;5042541;28;20227;-87
2021/01/31 16:30:14;;;;;;;29.35;18.27;;;-1.10;99.90;;;;;;5042782;28;20567;-86
2021/01/31 16:32:43;;;;;;;32.88;18.25;;;-1.10;99.90;;;;;;5044894;28;20188;-87
2021/01/31 16:35:13;;;;;;;30.30;18.52;;;-1.10;99.90;;;;;;5046371;28;20694;-86
2021/01/31 16:37:43;;;;;;;35.58;20.75;;;-1.10;99.90;;;;;;5045126;28;20203;-86
2021/01/31 16:40:11;;;;;;;27.42;17.40;;;-1.10;99.90;;;;;;5045144;28;20198;-86
2021/01/31 16:42:37;;;;;;;41.08;23.05;;;-1.10;99.90;;;;;;5052503;28;20207;-86
2021/01/31 16:45:07;;;;;;;37.50;23.17;;;-1.20;99.90;;;;;;5053407;28;20227;-85
2021/01/31 16:47:34;;;;;;;33.30;20.55;;;-1.30;99.90;;;;;;5051226;28;20204;-86
2021/01/31 16:50:00;;;;;;;45.83;24.02;;;-1.30;99.90;;;;;;5044507;28;20207;-88
2021/01/31 16:52:29;;;;;;;49.80;26.65;;;-1.40;99.90;;;;;;5043630;28;20271;-86
2021/01/31 16:54:56;;;;;;;50.75;26.98;;;-1.30;99.90;;;;;;5041963;28;20203;-87
2021/01/31 16:57:26;;;;;;;44.85;26.48;;;-1.30;99.90;;;;;;5041925;28;20569;-86
2021/01/31 16:59:52;;;;;;;51.78;26.23;;;-1.30;99.90;;;;;;5044081;28;20203;-85
2021/01/31 17:02:18;;;;;;;35.85;22.60;;;-1.20;99.90;;;;;;5042906;28;20203;-86
2021/01/31 17:04:45;;;;;;;30.17;18.67;;;-1.30;99.90;;;;;;5044069;28;20626;-85
2021/01/31 17:07:12;;;;;;;33.08;19.90;;;-1.30;99.90;;;;;;5051643;28;20247;-85
2021/01/31 17:09:38;;;;;;;28.05;18.70;;;-1.30;99.90;;;;;;5050159;28;20655;-86
2021/01/31 17:12:06;;;;;;;26.17;16.25;;;-1.20;99.90;;;;;;5052634;28;20239;-84
2021/01/31 17:14:40;;;;;;;29.70;17.77;;;-1.30;99.90;;;;;;5054917;28;20195;-87
2021/01/31 17:17:07;;;;;;;31.90;19.65;;;-1.30;99.90;;;;;;5047206;28;20210;-87
2021/01/31 17:19:33;;;;;;;30.35;18.40;;;-1.30;99.90;;;;;;5049248;28;20208;-86
2021/01/31 17:22:01;;;;;;;30.75;17.67;;;-1.30;99.90;;;;;;5043493;28;20232;-86
2021/01/31 17:24:27;;;;;;;23.52;17.17;;;-1.30;99.90;;;;;;5042973;28;20208;-86
2021/01/31 17:26:55;;;;;;;26.98;16.73;;;-1.40;99.90;;;;;;5043051;28;20211;-86
2021/01/31 17:29:22;;;;;;;24.20;17.05;;;-1.40;99.90;;;;;;5045663;28;20227;-87
2021/01/31 17:31:53;;;;;;;27.73;18.00;;;-1.50;99.90;;;;;;5045950;28;20701;-86
2021/01/31 17:34:22;;;;;;;28.50;16.48;;;-1.60;99.90;;;;;;5043631;28;20187;-87
2021/01/31 17:36:51;;;;;;;24.52;17.98;;;-1.60;99.90;;;;;;5044795;28;20219;-85
2021/01/31 17:39:19;;;;;;;26.20;17.77;;;-1.60;99.90;;;;;;5045438;28;20227;-85